Port Hueneme, California
Current Conditions -  °F | °C
As of 6:51 AM on Friday 31 Oct 2014 (Local Time) from KOXR Reporting Station
Overcast Overcast  
Wind Chill: 60°   Ceiling: 3300
Heat Index: 60°   Visibility: 10mi
Dew Point: 51°   Wind: 3mph
Humidity: 72%   Direction: 60°ENE
Pressure: 29.95"   Gusts: NA
Location:  34.15°N, 119.19°W
Report Text: KOXR 311351Z 06003KT 10SM OVC033 16/11 A2995 RMK AO2 SLP141 T01560106
Loading
Personal Weather Stations






























Interactive Weather Map New forecast layout! Learn more

10-Day Weather Forecast

Advertisements
Track Severe Weather on mobile